Time;durP1;ratioP1;P1;durP2;ratioP2;P2;SDS_P1;SDS_P2;PMS_P1;PMS_P2;Temp;Humidity;BMP_temperature;BMP_pressure;BME280_temperature;BME280_humidity;BME280_pressure;Samples;Min_cycle;Max_cycle;Signal;HPM_P1;HPM_P2
2022/02/21 00:04:10;;;;;;;;;;;9.40;99.90;;;8.33;57.80;94752.00;10482635;28;1995;-67
2022/02/21 00:09:14;;;;;;;;;;;9.30;99.90;;;8.35;57.83;94758.72;10488923;28;1769;-67
2022/02/21 00:14:18;;;;;;;;;;;9.60;99.90;;;8.35;57.63;94745.31;10506827;28;1872;-65
2022/02/21 00:19:21;;;;;;;;;;;9.30;99.90;;;8.38;58.25;94727.88;10502595;28;1968;-65
2022/02/21 00:24:24;;;;;;;;;;;9.30;99.90;;;8.33;58.34;94706.47;10511539;28;1914;-67
2022/02/21 00:29:28;;;;;;;;;;;9.40;99.90;;;8.32;58.24;94702.22;10502805;28;2220;-66
2022/02/21 00:34:30;;;;;;;;;;;9.30;99.90;;;8.26;58.98;94692.63;10507769;28;1902;-66
2022/02/21 00:39:35;;;;;;;;;;;9.30;99.90;;;8.29;58.51;94689.41;10515355;28;1776;-66
2022/02/21 00:44:41;;;;;;;;;;;9.20;99.90;;;8.27;58.72;94688.88;10510280;28;1906;-65
2022/02/21 00:49:44;;;;;;;;;;;9.20;99.90;;;8.29;57.93;94681.38;10503174;28;1910;-65
2022/02/21 00:54:47;;;;;;;;;;;9.30;99.90;;;8.30;58.45;94667.69;10506010;28;1768;-67
2022/02/21 00:59:50;;;;;;;;;;;9.30;99.90;;;8.45;57.09;94653.34;10491188;28;1557;-66
2022/02/21 01:04:53;;;;;;;;;;;9.40;99.90;;;8.47;56.65;94656.56;10495051;28;1979;-66
2022/02/21 01:09:57;;;;;;;;;;;9.40;99.90;;;8.53;56.14;94617.91;10503335;28;1871;-68
2022/02/21 01:15:00;;;;;;;;;;;9.50;99.90;;;8.63;55.95;94616.97;10502806;28;1801;-67
2022/02/21 01:20:06;;;;;;;;;;;9.50;99.90;;;8.64;55.93;94587.19;10508737;28;1770;-68
2022/02/21 01:25:10;;;;;;;;;;;9.60;99.90;;;8.69;55.15;94585.53;10495695;28;1900;-67
2022/02/21 01:30:13;;;;;;;;;;;9.60;99.90;;;8.71;54.79;94594.88;10506461;28;1729;-68
2022/02/21 01:35:16;;;;;;;;;;;9.70;99.90;;;8.68;55.49;94592.00;10502720;28;1876;-66
2022/02/21 01:40:20;;;;;;;;;;;9.70;99.90;;;8.77;54.86;94564.22;10500865;28;1799;-65
2022/02/21 01:45:24;;;;;;;;;;;9.70;99.90;;;8.76;54.91;94578.72;10494408;28;1906;-67
2022/02/21 01:50:27;;;;;;;;;;;9.70;99.90;;;8.76;54.78;94567.22;10498774;28;1826;-67
2022/02/21 01:55:30;;;;;;;;;;;9.70;99.90;;;8.74;54.87;94545.28;10500298;28;2053;-67
2022/02/21 02:00:34;;;;;;;;;;;9.70;99.90;;;8.71;55.10;94533.25;10506905;28;2080;-66
2022/02/21 02:05:37;;;;;;;;;;;9.70;99.90;;;8.74;55.21;94491.69;10504686;28;1912;-69
2022/02/21 02:10:41;;;;;;;;;;;9.70;99.90;;;8.70;55.09;94463.88;10506112;28;1890;-66
2022/02/21 02:15:45;;;;;;;;;;;9.60;99.90;;;8.83;53.80;94460.44;10488377;28;1859;-68
2022/02/21 02:20:48;;;;;;;;;;;9.70;99.90;;;8.79;54.15;94422.75;10473496;28;1887;-66
2022/02/21 02:25:51;;;;;;;;;;;9.70;99.90;;;8.93;53.07;94420.09;10513323;28;1957;-68
2022/02/21 02:30:55;;;;;;;;;;;9.80;99.90;;;8.98;52.91;94425.34;10498981;28;1975;-68
2022/02/21 02:36:00;;;;;;;;;;;9.90;99.90;;;9.05;51.95;94393.59;10514992;28;2224;-67
2022/02/21 02:41:04;;;;;;;;;;;10.00;99.90;;;9.11;52.11;94376.31;10518445;28;1856;-66
2022/02/21 02:46:07;;;;;;;;;;;10.00;99.90;;;9.14;51.78;94338.19;10515829;28;1983;-67
2022/02/21 02:51:10;;;;;;;;;;;10.10;99.90;;;9.19;51.54;94331.94;10516557;28;1962;-68
2022/02/21 02:56:14;;;;;;;;;;;10.10;99.90;;;9.17;51.37;94315.38;10518014;28;1967;-66
2022/02/21 03:01:17;;;;;;;;;;;10.10;99.90;;;9.28;50.68;94321.28;10499405;28;1950;-66
2022/02/21 03:06:21;;;;;;;;;;;10.20;99.90;;;9.34;50.44;94287.91;10503293;28;1954;-66
2022/02/21 03:11:24;;;;;;;;;;;10.20;99.90;;;9.40;49.85;94308.94;10507350;28;1986;-67
2022/02/21 03:16:28;;;;;;;;;;;10.30;99.90;;;9.45;49.90;94267.81;10492638;28;2121;-66
2022/02/21 03:21:31;;;;;;;;;;;10.30;99.90;;;9.46;49.64;94312.31;10499474;28;1908;-68
2022/02/21 03:26:34;;;;;;;;;;;10.40;99.90;;;9.41;49.20;94297.13;10496222;28;2287;-66
2022/02/21 03:31:38;;;;;;;;;;;10.40;99.90;;;9.44;49.28;94239.41;10508075;28;1964;-67
2022/02/21 03:36:41;;;;;;;;;;;11.40;99.90;;;9.48;49.18;94262.66;10511259;28;1952;-67
2022/02/21 03:41:44;;;;;;;;;;;10.30;99.90;;;9.55;49.04;94246.13;10513832;28;2103;-67
2022/02/21 03:46:47;;;;;;;;;;;10.50;99.90;;;9.54;49.42;94251.78;10519604;28;2005;-67
2022/02/21 03:51:50;;;;;;;;;;;10.50;99.90;;;9.51;49.43;94247.03;10500825;28;2050;-67
2022/02/21 03:56:54;;;;;;;;;;;10.50;99.90;;;9.52;50.17;94246.72;10500571;28;2049;-68
2022/02/21 04:01:57;;;;;;;;;;;10.40;99.90;;;9.46;50.39;94258.66;10511602;28;2032;-67
2022/02/21 04:07:00;;;;;;;;;;;10.40;99.90;;;9.47;50.59;94228.06;10496082;28;1942;-69
2022/02/21 04:12:03;;;;;;;;;;;10.40;99.90;;;9.47;50.43;94239.59;10487121;28;1962;-68
2022/02/21 04:17:07;;;;;;;;;;;10.40;99.90;;;9.38;51.50;94240.63;10496747;28;1928;-67
2022/02/21 04:22:11;;;;;;;;;;;10.40;99.90;;;9.24;52.39;94234.53;10499426;28;1955;-67
2022/02/21 04:27:15;;;;;;;;;;;10.30;99.90;;;9.10;52.85;94240.72;10497797;28;1966;-67
2022/02/21 04:32:19;;;;;;;;;;;10.10;99.90;;;9.05;54.60;94230.09;10500620;28;1959;-67
2022/02/21 04:37:23;;;;;;;;;;;;;;;8.90;55.14;94238.44;10510668;28;1990;-67
2022/02/21 04:42:27;;;;;;;;;;;;;;;8.75;56.29;94228.06;10505742;28;1994;-66
2022/02/21 04:47:31;;;;;;;;;;;;;;;8.65;56.79;94213.78;10509051;28;1907;-66
2022/02/21 04:52:34;;;;;;;;;;;9.50;99.90;;;8.54;57.39;94188.28;10516103;28;1883;-66
2022/02/21 04:57:37;;;;;;;;;;;9.40;99.90;;;8.43;58.59;94192.25;10510306;28;2140;-68
2022/02/21 05:02:41;;;;;;;;;;;9.40;99.90;;;8.35;58.93;94211.66;10510296;28;1965;-67
2022/02/21 05:07:46;;;;;;;;;;;9.40;99.90;;;8.25;59.24;94201.16;10506203;28;1966;-68
2022/02/21 05:12:49;;;;;;;;;;;9.30;99.90;;;8.21;60.17;94192.13;10506445;28;1919;-66
2022/02/21 05:17:52;;;;;;;;;;;9.20;99.90;;;8.09;60.68;94174.69;10505457;28;2062;-67
2022/02/21 05:22:56;;;;;;;;;;;9.10;99.90;;;8.01;61.21;94194.06;10507889;28;2031;-68
2022/02/21 05:28:00;;;;;;;;;;;9.30;99.90;;;8.02;61.77;94163.56;10505950;28;2069;-67
2022/02/21 05:33:03;;;;;;;;;;;9.00;99.90;;;7.97;61.66;94161.00;10510733;28;1982;-68
2022/02/21 05:38:07;;;;;;;;;;;9.00;99.90;;;7.98;62.22;94167.94;10507458;28;1978;-67
2022/02/21 05:43:11;;;;;;;;;;;9.00;99.90;;;8.08;62.34;94167.75;10500937;28;1958;-67
2022/02/21 05:48:15;;;;;;;;;;;9.00;99.90;;;8.18;61.85;94171.31;10478423;28;2060;-68
2022/02/21 05:53:18;;;;;;;;;;;9.10;99.90;;;8.26;62.33;94194.69;10475974;28;2077;-68
2022/02/21 05:58:21;;;;;;;;;;;9.00;99.90;;;8.26;65.02;94304.44;10485323;28;2084;-68
2022/02/21 06:03:25;;;;;;;;;;;;;;;4.21;86.61;94421.38;10507331;28;2003;-65
2022/02/21 06:08:29;;;;;;;;;;;;;;;1.74;100.00;94453.41;10513771;28;1913;-71
2022/02/21 06:13:34;;;;;;;;;;;2.80;99.90;;;0.97;100.00;94486.16;10510356;28;1944;-70
2022/02/21 06:18:38;;;;;;;;;;;1.80;99.90;;;0.73;100.00;94504.06;10507678;28;1896;-70
2022/02/21 06:23:41;;;;;;;;;;;1.70;99.90;;;0.57;100.00;94526.03;10512374;28;2079;-70
2022/02/21 06:28:44;;;;;;;;;;;1.60;99.90;;;0.46;100.00;94556.84;10507236;28;2009;-72
2022/02/21 06:33:47;;;;;;;;;;;1.40;99.90;;;0.59;100.00;94537.19;10485836;28;2014;-71
2022/02/21 06:38:50;;;;;;;;;;;1.30;99.90;;;0.71;100.00;94535.28;10490162;28;1959;-70
2022/02/21 06:43:54;;;;;;;;;;;1.60;99.90;;;0.86;100.00;94529.38;10501017;28;1868;-70
2022/02/21 06:48:58;;;;;;;;;;;1.70;99.90;;;1.04;100.00;94524.63;10496184;28;1906;-70
2022/02/21 06:54:01;;;;;;;;;;;1.80;99.90;;;1.23;100.00;94519.84;10493974;28;1879;-71
2022/02/21 06:59:04;;;;;;;;;;;2.00;99.90;;;1.36;100.00;94518.66;10509320;28;1905;-71
2022/02/21 07:04:07;;;;;;;;;;;2.20;99.90;;;1.68;100.00;94520.63;10501744;28;1954;-72
2022/02/21 07:09:14;;;;;;;;;;;2.40;99.90;;;1.71;100.00;94539.44;10496593;28;2009;-73
2022/02/21 07:14:17;;;;;;;;;;;2.60;99.90;;;1.75;100.00;94547.72;10490104;28;1849;-67
2022/02/21 07:19:20;;;;;;;;;;;2.60;99.90;;;1.65;100.00;94566.13;10467910;28;2069;-66
2022/02/21 07:24:23;;;;;;;;;;;2.60;99.90;;;1.82;100.00;94577.47;10491687;28;1907;-70
2022/02/21 07:29:26;;;;;;;;;;;2.60;99.90;;;1.88;100.00;94585.22;10481468;28;2147;-68
2022/02/21 07:34:29;;;;;;;;;;;2.70;99.90;;;2.05;100.00;94595.75;10497137;28;1820;-69
2022/02/21 07:39:33;;;;;;;;;;;2.90;99.90;;;2.04;100.00;94639.22;10514013;28;1982;-66
2022/02/21 07:44:37;;;;;;;;;;;3.00;99.90;;;2.06;100.00;94621.22;10488170;28;2011;-68
2022/02/21 07:49:40;;;;;;;;;;;3.00;99.90;;;2.12;100.00;94601.66;10497138;28;1954;-68
2022/02/21 07:54:45;;;;;;;;;;;3.00;99.90;;;2.28;97.66;94638.94;10478097;28;1950;-68
2022/02/21 07:59:47;;;;;;;;;;;3.20;99.90;;;2.42;97.62;94694.00;10474197;28;1963;-66
2022/02/21 08:04:50;;;;;;;;;;;3.30;99.90;;;2.33;95.49;94722.00;10486138;28;2023;-66
2022/02/21 08:09:53;;;;;;;;;;;3.30;99.90;;;2.53;95.56;94694.91;10501657;28;1983;-66
2022/02/21 08:14:56;;;;;;;;;;;3.40;99.90;;;2.71;95.35;94707.03;10491572;28;2109;-66
2022/02/21 08:20:00;;;;;;;;;;;3.60;99.90;;;2.92;93.02;94753.94;10498576;28;2101;-65
2022/02/21 08:25:04;;;;;;;;;;;3.70;99.90;;;3.02;92.08;94749.78;10497708;28;2010;-65
2022/02/21 08:30:08;;;;;;;;;;;3.90;99.90;;;3.12;90.59;94838.34;10503558;28;1980;-66
2022/02/21 08:35:13;;;;;;;;;;;4.00;99.90;;;3.17;89.66;94851.63;10477723;28;2026;-68
2022/02/21 08:40:17;;;;;;;;;;;4.10;99.90;;;3.21;88.74;94823.53;10475531;28;2041;-68
2022/02/21 08:45:20;;;;;;;;;;;4.10;99.90;;;3.56;86.49;94826.78;10475746;28;1926;-65
2022/02/21 08:50:23;;;;;;;;;;;4.30;99.90;;;3.48;83.56;94810.25;10478493;28;1962;-67
2022/02/21 08:55:26;;;;;;;;;;;4.40;99.90;;;3.67;84.71;94858.50;10479899;28;1966;-66
2022/02/21 09:00:29;;;;;;;;;;;4.50;99.90;;;3.97;81.96;94862.47;10485190;28;2032;-67
2022/02/21 09:05:33;;;;;;;;;;;4.80;99.90;;;4.19;79.88;94857.84;10478034;28;1954;-67
2022/02/21 09:10:36;;;;;;;;;;;4.90;99.90;;;4.19;79.05;94873.00;10480283;28;1973;-67
2022/02/21 09:15:40;;;;;;;;;;;5.10;99.90;;;4.22;79.35;94886.63;10501963;28;1948;-67
2022/02/21 09:20:43;;;;;;;;;;;5.20;99.90;;;4.33;79.93;94887.50;10492570;28;1990;-66
2022/02/21 09:25:46;;;;;;;;;;;5.20;99.90;;;4.37;78.67;94872.59;10495005;28;1990;-68
2022/02/21 09:30:53;;;;;;;;;;;5.20;99.90;;;4.64;76.00;94859.19;10491320;28;2105;-66
2022/02/21 09:35:58;;;;;;;;;;;5.40;99.90;;;4.69;75.66;94877.84;10491284;28;1990;-67
2022/02/21 09:41:01;;;;;;;;;;;5.60;99.90;;;4.51;73.96;94899.56;10500265;28;1977;-65
2022/02/21 09:46:04;;;;;;;;;;;5.50;99.90;;;4.49;74.32;94885.72;10504578;28;1996;-66
2022/02/21 09:51:07;;;;;;;;;;;5.50;99.90;;;4.64;74.28;94885.81;10481974;28;2768;-66
2022/02/21 09:56:10;;;;;;;;;;;5.50;99.90;;;4.78;72.06;94894.94;10478064;28;1869;-69
2022/02/21 10:01:14;;;;;;;;;;;5.60;99.90;;;4.77;70.63;94898.69;10468668;28;1839;-65
2022/02/21 10:06:17;;;;;;;;;;;5.60;99.90;;;4.91;69.79;94876.91;10486055;28;2029;-64
2022/02/21 10:11:20;;;;;;;;;;;5.80;99.90;;;4.94;69.98;94871.03;10500106;28;1523;-67
2022/02/21 10:16:23;;;;;;;;;;;5.90;99.90;;;4.94;66.70;94852.41;10478273;28;1746;-67
2022/02/21 10:21:26;;;;;;;;;;;5.80;99.90;;;5.17;66.06;94843.97;10465883;28;1923;-68
2022/02/21 10:26:30;;;;;;;;;;;6.00;99.90;;;5.34;66.75;94855.22;10467753;28;1902;-67
2022/02/21 10:31:32;;;;;;;;;;;6.40;99.90;;;5.49;62.50;94851.78;10469683;28;2112;-66
2022/02/21 10:36:55;;;;;;;;;;;6.40;99.90;;;5.54;63.79;94853.66;10477683;28;1734;-67
2022/02/21 10:41:59;;;;;;;;;;;6.50;99.90;;;5.76;61.26;94846.22;10478426;28;1919;-67
2022/02/21 10:47:02;;;;;;;;;;;6.70;99.90;;;6.14;59.65;94847.56;10480096;28;1914;-67
2022/02/21 10:52:23;;;;;;;;;;;6.90;99.90;;;5.37;61.91;94827.22;10476542;28;1853;-66
2022/02/21 10:57:28;;;;;;;;;;;6.60;99.90;;;5.43;61.91;94823.50;10468430;28;1845;-66
2022/02/21 11:02:32;;;;;;;;;;;6.30;99.90;;;5.31;63.53;94821.09;10472658;28;1939;-67
2022/02/21 11:07:41;;;;;;;;;;;6.30;99.90;;;5.49;62.39;94824.31;10467265;28;2003;-66
2022/02/21 11:12:45;;;;;;;;;;;6.30;99.90;;;5.39;64.18;94833.09;10485971;28;1860;-65
2022/02/21 11:17:48;;;;;;;;;;;6.20;99.90;;;5.88;64.84;94832.63;10489253;28;1850;-66
2022/02/21 11:22:50;;;;;;;;;;;6.50;99.90;;;6.10;62.29;94835.03;10473027;28;1955;-64
2022/02/21 11:27:53;;;;;;;;;;;6.80;99.90;;;5.56;62.98;94835.53;10482079;28;1937;-66
2022/02/21 11:32:57;;;;;;;;;;;6.70;99.90;;;5.55;61.40;94820.59;10474398;28;1910;-65
2022/02/21 11:38:00;;;;;;;;;;;6.50;99.90;;;5.64;60.47;94833.13;10490296;28;1848;-67
2022/02/21 11:43:03;;;;;;;;;;;6.60;99.90;;;6.10;59.30;94808.34;10477770;28;1883;-66
2022/02/21 11:48:06;;;;;;;;;;;6.70;99.90;;;6.42;58.50;94800.81;10482617;28;1910;-66
2022/02/21 11:53:09;;;;;;;;;;;7.10;99.90;;;6.47;58.63;94771.44;10466645;28;1897;-66
2022/02/21 11:58:12;;;;;;;;;;;7.20;99.90;;;6.88;57.26;94775.84;10472660;28;1831;-66
2022/02/21 12:16:16;;;;;;;;;;;7.50;99.90;;;6.97;54.86;94752.81;10547780;27;1336652;-67
2022/02/21 12:21:19;;;;;;;;;;;7.60;99.90;;;7.27;55.25;94757.19;10576161;27;3010;-68
2022/02/21 12:26:22;;;;;;;;;;;7.90;99.90;;;7.13;55.19;94740.19;10594939;27;2054;-67
2022/02/21 12:31:26;;;;;;;;;;;7.90;99.90;;;7.15;54.47;94728.13;10574200;27;2099;-67
2022/02/21 12:36:29;;;;;;;;;;;7.70;99.90;;;6.77;53.97;94743.81;10593156;27;1960;-68
2022/02/21 12:41:37;;;;;;;;;;;7.80;99.90;;;6.83;55.64;94725.91;10588443;27;3238;-68
2022/02/21 12:46:40;;;;;;;;;;;7.70;99.90;;;6.36;57.03;94710.34;10579282;27;2063;-67
2022/02/21 12:51:43;;;;;;;;;;;7.50;99.90;;;6.52;56.63;94697.75;10595410;27;2140;-67
2022/02/21 12:56:47;;;;;;;;;;;7.40;99.90;;;6.36;57.03;94705.84;10580987;27;2025;-68
2022/02/21 13:01:50;;;;;;;;;;;7.40;99.90;;;6.35;58.12;94736.25;10593041;27;2243;-68
2022/02/21 13:06:54;;;;;;;;;;;7.20;99.90;;;6.17;64.49;94740.31;10593732;27;1840;-69
2022/02/21 13:11:57;;;;;;;;;;;7.20;99.90;;;5.88;66.19;94745.41;10581791;27;3126;-68
2022/02/21 13:17:01;;;;;;;;;;;7.00;99.90;;;6.06;63.66;94729.94;10572335;27;2022;-69
2022/02/21 13:22:05;;;;;;;;;;;7.00;99.90;;;5.95;61.41;94716.59;10570249;27;1971;-70
2022/02/21 13:27:08;;;;;;;;;;;6.90;99.90;;;6.53;60.14;94707.34;10550666;28;1934;-69
2022/02/21 13:32:12;;;;;;;;;;;7.10;99.90;;;6.60;57.29;94699.84;10556008;27;1749;-70
2022/02/21 13:37:16;;;;;;;;;;;8.00;99.90;;;6.80;56.16;94698.94;10589371;27;1858;-67
2022/02/21 13:42:19;;;;;;;;;;;7.60;99.90;;;6.97;55.54;94696.69;10557272;28;2048;-68
2022/02/21 13:47:22;;;;;;;;;;;7.80;99.90;;;6.80;53.88;94683.69;10573356;27;2077;-68
2022/02/21 13:52:25;;;;;;;;;;;7.90;99.90;;;7.09;52.65;94685.69;10552417;27;1877;-68
2022/02/21 13:57:28;;;;;;;;;;;7.90;99.90;;;7.17;52.61;94691.22;10548080;27;1916;-67
2022/02/21 14:02:31;;;;;;;;;;;8.00;99.90;;;7.20;52.92;94673.84;10547735;27;2230;-67
2022/02/21 14:07:46;;;;;;;;;;;8.10;99.90;;;7.02;53.01;94677.97;10542769;27;1903;-68
2022/02/21 14:12:49;;;;;;;;;;;8.00;99.90;;;6.52;53.33;94687.06;10564410;27;3081;-66
2022/02/21 14:17:52;;;;;;;;;;;7.70;99.90;;;6.47;53.20;94691.34;10574305;27;2012;-68
2022/02/21 14:22:55;;;;;;;;;;;7.40;99.90;;;6.71;53.04;94690.72;10546895;27;2060;-67
2022/02/21 14:27:58;;;;;;;;;;;7.50;99.90;;;6.64;52.62;94674.19;10566086;27;1898;-67
2022/02/21 14:33:01;;;;;;;;;;;7.50;99.90;;;6.76;53.65;94677.34;10547082;27;2018;-68
2022/02/21 14:38:12;;;;;;;;;;;7.60;99.90;;;6.66;54.75;94643.47;10556351;27;1852;-68
2022/02/21 14:43:15;;;;;;;;;;;9.00;99.90;;;6.78;53.81;94653.81;10549188;27;1909;-68
2022/02/21 14:48:18;;;;;;;;;;;7.60;99.90;;;6.85;50.39;94664.97;10542870;28;2092;-68
2022/02/21 14:53:21;;;;;;;;;;;7.80;99.90;;;6.98;48.04;94640.31;10542963;28;2051;-68
2022/02/21 14:58:24;;;;;;;;;;;7.90;99.90;;;6.95;46.58;94659.59;10556394;27;1866;-69
2022/02/21 15:03:28;;;;;;;;;;;7.90;99.90;;;6.71;47.88;94654.13;10549299;27;2016;-70
2022/02/21 15:08:31;;;;;;;;;;;7.80;99.90;;;6.70;48.70;94657.88;10566602;27;1921;-68
2022/02/21 15:13:34;;;;;;;;;;;7.60;99.90;;;6.63;49.62;94651.25;10548071;27;3108;-68
2022/02/21 15:18:37;;;;;;;;;;;7.50;99.90;;;6.44;51.29;94648.41;10545418;27;2020;-69
2022/02/21 15:23:40;;;;;;;;;;;7.50;99.90;;;6.28;53.03;94650.31;10545024;27;2024;-68
2022/02/21 15:28:43;;;;;;;;;;;7.30;99.90;;;6.20;53.78;94653.56;10562692;27;2035;-68
2022/02/21 15:33:46;;;;;;;;;;;7.20;99.90;;;6.43;54.31;94652.94;10543616;27;1845;-69
2022/02/21 15:38:49;;;;;;;;;;;7.30;99.90;;;6.47;57.63;94664.66;10545439;28;1951;-69
2022/02/21 15:43:56;;;;;;;;;;;7.30;99.90;;;6.17;60.19;94657.59;10562082;27;1975;-69
2022/02/21 15:48:59;;;;;;;;;;;7.20;99.90;;;5.94;61.62;94655.53;10578831;27;1956;-69
2022/02/21 15:54:02;;;;;;;;;;;7.20;99.90;;;5.72;63.57;94655.81;10573034;28;1932;-70
2022/02/21 15:59:04;;;;;;;;;;;6.90;99.90;;;5.43;65.08;94661.72;10537765;28;1916;-69
2022/02/21 16:04:10;;;;;;;;;;;6.60;99.90;;;5.08;66.98;94665.19;10545071;28;1913;-68
2022/02/21 16:09:13;;;;;;;;;;;6.20;99.90;;;4.77;68.02;94659.06;10561261;28;1700;-67
2022/02/21 16:14:17;;;;;;;;;;;6.00;99.90;;;4.56;69.26;94649.41;10540966;28;2310;-68
2022/02/21 16:19:20;;;;;;;;;;;5.80;99.90;;;4.47;69.00;94632.38;10546867;28;1952;-68
2022/02/21 16:24:24;;;;;;;;;;;5.60;99.90;;;4.31;69.22;94634.97;10566321;28;1913;-68
2022/02/21 16:29:27;;;;;;;;;;;5.50;99.90;;;4.23;69.66;94646.13;10544577;28;1512;-68
2022/02/21 16:34:30;;;;;;;;;;;5.40;99.90;;;4.16;70.18;94632.28;10547034;28;1502;-68
2022/02/21 16:39:33;;;;;;;;;;;5.30;99.90;;;4.05;70.06;94641.28;10561554;28;1870;-70
2022/02/21 16:44:36;;;;;;;;;;;5.20;99.90;;;4.00;70.49;94655.34;10559737;28;1984;-69
2022/02/21 16:49:41;;;;;;;;;;;5.10;99.90;;;3.89;71.52;94645.75;10580094;27;1907;-69
2022/02/21 16:54:44;;;;;;;;;;;5.00;99.90;;;3.86;71.92;94648.13;10575006;27;1762;-69
2022/02/21 16:59:47;;;;;;;;;;;4.90;99.90;;;3.75;73.59;94639.28;10556323;27;1863;-69
2022/02/21 17:04:50;;;;;;;;;;;4.80;99.90;;;3.74;73.27;94651.78;10554943;27;1922;-68
2022/02/21 17:09:53;;;;;;;;;;;4.80;99.90;;;3.85;73.13;94651.84;10568559;27;1878;-67
2022/02/21 17:14:55;;;;;;;;;;;5.00;99.90;;;3.92;73.33;94647.09;10553499;27;3172;-68
2022/02/21 17:19:58;;;;;;;;;;;4.90;99.90;;;3.97;73.10;94644.44;10582417;27;1881;-69
2022/02/21 17:25:01;;;;;;;;;;;4.90;99.90;;;3.84;74.02;94628.97;10586297;27;1910;-68
2022/02/21 17:30:04;;;;;;;;;;;4.90;99.90;;;3.72;74.45;94626.53;10568691;27;2054;-70
2022/02/21 17:35:07;;;;;;;;;;;4.80;99.90;;;3.79;74.65;94641.16;10553153;27;1845;-70
2022/02/21 17:40:10;;;;;;;;;;;4.80;99.90;;;3.88;73.85;94640.66;10552956;27;1860;-70
2022/02/21 17:45:13;;;;;;;;;;;4.80;99.90;;;3.93;73.05;94646.81;10575507;27;1917;-70
2022/02/21 17:50:16;;;;;;;;;;;4.90;99.90;;;4.10;72.63;94659.13;10554799;27;1854;-70
2022/02/21 17:55:18;;;;;;;;;;;5.00;99.90;;;4.21;72.14;94661.56;10557163;27;1845;-70
2022/02/21 18:00:21;;;;;;;;;;;5.10;99.90;;;4.08;77.32;94659.41;10568591;27;1594;-70
2022/02/21 18:05:28;;;;;;;;;;;5.70;99.90;;;3.78;84.34;94650.22;10571494;28;1910;-70
2022/02/21 18:10:31;;;;;;;;;;;5.00;99.90;;;3.60;86.36;94645.31;10546862;28;2073;-71
2022/02/21 18:15:34;;;;;;;;;;;4.70;99.90;;;3.45;88.38;94638.06;10554998;27;1913;-70
2022/02/21 18:20:36;;;;;;;;;;;4.60;99.90;;;3.49;87.50;94631.16;10555562;27;1816;-70
2022/02/21 18:25:41;;;;;;;;;;;4.50;99.90;;;3.64;85.40;94651.72;10566854;27;1980;-69
2022/02/21 18:30:44;;;;;;;;;;;4.60;99.90;;;3.65;84.13;94652.53;10563701;27;1875;-69
2022/02/21 18:35:47;;;;;;;;;;;4.70;99.90;;;3.75;83.04;94634.78;10548237;27;1955;-68
2022/02/21 18:40:50;;;;;;;;;;;4.70;99.90;;;3.84;81.28;94652.91;10542709;27;1862;-72
2022/02/21 18:45:53;;;;;;;;;;;4.80;99.90;;;3.83;80.60;94641.47;10567866;28;1971;-71
2022/02/21 18:51:00;;;;;;;;;;;4.80;99.90;;;3.97;78.94;94674.50;10564930;27;1936;-70
2022/02/21 18:56:03;;;;;;;;;;;4.90;99.90;;;4.12;78.78;94679.06;10570860;27;1836;-70
2022/02/21 19:01:07;;;;;;;;;;;5.00;99.90;;;3.93;83.71;94680.56;10566538;27;1843;-70
2022/02/21 19:06:11;;;;;;;;;;;5.00;99.90;;;3.60;94.79;94709.09;10561048;27;1926;-70
2022/02/21 19:11:14;;;;;;;;;;;4.70;99.90;;;3.16;98.84;94706.63;10557844;28;1914;-69
2022/02/21 19:16:18;;;;;;;;;;;4.50;99.90;;;3.01;100.00;94717.13;10547264;27;1827;-70
2022/02/21 19:21:21;;;;;;;;;;;4.10;99.90;;;2.96;100.00;94719.75;10566033;27;2017;-69
2022/02/21 19:26:24;;;;;;;;;;;4.30;99.90;;;2.96;100.00;94725.06;10547131;27;1918;-68
2022/02/21 19:31:27;;;;;;;;;;;4.00;99.90;;;3.05;100.00;94744.78;10550665;27;1867;-68
2022/02/21 19:36:30;;;;;;;;;;;4.00;99.90;;;2.90;100.00;94757.91;10567450;27;1794;-70
2022/02/21 19:41:33;;;;;;;;;;;3.90;99.90;;;2.84;100.00;94753.59;10546359;27;1844;-68
2022/02/21 19:46:37;;;;;;;;;;;;;;;2.90;100.00;94740.13;10552547;27;1918;-71
2022/02/21 19:51:40;;;;;;;;;;;;;;;2.95;100.00;94781.84;10550537;27;1871;-67
2022/02/21 19:56:44;;;;;;;;;;;;;;;2.96;100.00;94794.88;10576751;28;1871;-69
2022/02/21 20:01:47;;;;;;;;;;;;;;;3.00;100.00;94773.16;10536228;28;2298;-68
2022/02/21 20:06:51;;;;;;;;;;;;;;;3.09;100.00;94772.44;10559940;28;2029;-70
2022/02/21 20:11:54;;;;;;;;;;;4.90;99.90;;;3.11;100.00;94791.56;10553567;28;2152;-68
2022/02/21 20:16:57;;;;;;;;;;;4.10;99.90;;;3.13;100.00;94808.06;10573901;28;1863;-70
2022/02/21 20:22:00;;;;;;;;;;;4.20;99.90;;;3.20;100.00;94806.00;10573548;28;1977;-70
2022/02/21 20:27:03;;;;;;;;;;;4.30;99.90;;;3.35;99.52;94823.13;10571657;27;1970;-69
2022/02/21 20:32:06;;;;;;;;;;;4.30;99.90;;;3.36;99.23;94830.84;10583197;27;2074;-72
2022/02/21 20:37:10;;;;;;;;;;;4.30;99.90;;;3.29;100.00;94856.00;10578642;27;1900;-72
2022/02/21 20:42:13;;;;;;;;;;;4.20;99.90;;;3.27;100.00;94874.88;10578325;27;1918;-72
2022/02/21 20:47:16;;;;;;;;;;;4.60;99.90;;;3.32;100.00;94906.00;10559000;27;1977;-71
2022/02/21 20:52:20;;;;;;;;;;;4.10;99.90;;;3.29;100.00;94914.44;10555185;27;1836;-70
2022/02/21 20:57:23;;;;;;;;;;;4.00;99.90;;;3.27;100.00;94927.19;10571529;27;2007;-71
2022/02/21 21:02:29;;;;;;;;;;;4.10;99.90;;;3.22;100.00;94947.31;10585689;27;2040;-71
2022/02/21 21:07:32;;;;;;;;;;;4.10;99.90;;;3.22;100.00;94968.56;10572368;27;2009;-70
2022/02/21 21:12:35;;;;;;;;;;;4.00;99.90;;;2.97;100.00;95003.53;10565859;27;2034;-72
2022/02/21 21:17:39;;;;;;;;;;;;;;;2.61;100.00;95004.91;10577983;27;1972;-72
2022/02/21 21:22:42;;;;;;;;;;;4.00;99.90;;;2.33;100.00;95020.88;10559844;28;1957;-72
2022/02/21 21:27:46;;;;;;;;;;;3.30;99.90;;;2.52;100.00;95026.75;10541283;28;1927;-70
2022/02/21 21:32:50;;;;;;;;;;;;;;;2.67;100.00;95035.78;10558125;27;1875;-71
2022/02/21 21:37:53;;;;;;;;;;;3.50;99.90;;;2.77;100.00;95052.88;10551146;28;2059;-71
2022/02/21 21:42:56;;;;;;;;;;;3.60;99.90;;;2.71;100.00;95076.69;10547543;28;1893;-71
2022/02/21 21:48:00;;;;;;;;;;;3.60;99.90;;;2.84;100.00;95090.69;10547565;28;1921;-69
2022/02/21 21:53:03;;;;;;;;;;;3.70;99.90;;;2.88;100.00;95099.78;10574054;27;1927;-70
2022/02/21 21:58:06;;;;;;;;;;;3.80;99.90;;;2.87;100.00;95106.94;10564701;27;1820;-70
2022/02/21 22:03:09;;;;;;;;;;;3.80;99.90;;;2.84;100.00;95119.88;10562008;28;2033;-71
2022/02/21 22:08:14;;;;;;;;;;;3.80;99.90;;;2.88;100.00;95129.00;10574901;27;1984;-70
2022/02/21 22:13:18;;;;;;;;;;;3.80;99.90;;;2.91;100.00;95133.81;10543339;28;1881;-69
2022/02/21 22:18:21;;;;;;;;;;;3.90;99.90;;;2.91;100.00;95150.53;10564830;27;1964;-69
2022/02/21 22:23:24;;;;;;;;;;;3.90;99.90;;;2.95;100.00;95146.34;10578020;27;1840;-70
2022/02/21 22:28:28;;;;;;;;;;;3.90;99.90;;;3.05;100.00;95164.28;10543636;28;1917;-70
2022/02/21 22:33:32;;;;;;;;;;;4.00;99.90;;;3.07;99.50;95172.03;10570159;27;1476;-68
2022/02/21 22:38:36;;;;;;;;;;;4.00;99.90;;;3.07;98.30;95183.47;10561083;27;1635;-70
2022/02/21 22:43:40;;;;;;;;;;;4.10;99.90;;;2.95;99.45;95186.19;10544076;28;1914;-69
2022/02/21 22:48:44;;;;;;;;;;;4.00;99.90;;;2.93;98.46;95198.09;10560757;28;2058;-69
2022/02/21 22:53:48;;;;;;;;;;;3.90;99.90;;;2.89;98.83;95199.59;10556285;27;1839;-70
2022/02/21 22:58:52;;;;;;;;;;;3.90;99.90;;;2.89;99.43;95224.31;10574706;27;1708;-70
2022/02/21 23:09:16;;;;;;;;;;;3.90;99.90;;;2.82;100.00;95234.28;10572777;27;1825;-71
2022/02/21 23:14:19;;;;;;;;;;;3.80;99.90;;;2.81;100.00;95231.84;10574463;27;1933;-69
2022/02/21 23:19:22;;;;;;;;;;;3.80;99.90;;;2.91;100.00;95237.34;10553465;27;1816;-70
2022/02/21 23:24:26;;;;;;;;;;;3.80;99.90;;;2.89;100.00;95244.75;10552485;27;1913;-70
2022/02/21 23:29:29;;;;;;;;;;;3.90;99.90;;;2.93;100.00;95245.88;10579191;27;1806;-69
2022/02/21 23:34:32;;;;;;;;;;;3.90;99.90;;;2.93;100.00;95245.88;10563356;27;2172;-69
2022/02/21 23:39:36;;;;;;;;;;;3.90;99.90;;;2.81;100.00;95255.75;10549792;27;1868;-69
2022/02/21 23:44:40;;;;;;;;;;;3.80;99.90;;;2.71;100.00;95246.53;10549945;27;2165;-70
2022/02/21 23:49:43;;;;;;;;;;;3.70;99.90;;;2.70;100.00;95260.84;10578745;27;1779;-68
2022/02/21 23:54:47;;;;;;;;;;;3.70;99.90;;;2.83;100.00;95269.59;10558356;27;1957;-69
2022/02/21 23:59:50;;;;;;;;;;;3.70;99.90;;;2.81;100.00;95271.69;10552766;28;1874;-70
